sensor_id;sensor_type;location;lat;lon;timestamp;pressure;altitude;pressure_sealevel;temperature;humidity
77062;BME280;65989;51.686;5.138;2024-01-25T00:01:14;102906.59;;;7.23;94.94
77062;BME280;65989;51.686;5.138;2024-01-25T00:03:40;102912.22;;;7.20;95.31
77062;BME280;65989;51.686;5.138;2024-01-25T00:06:05;102918.38;;;7.12;95.46
77062;BME280;65989;51.686;5.138;2024-01-25T00:08:31;102920.75;;;7.07;95.68
77062;BME280;65989;51.686;5.138;2024-01-25T00:10:56;102917.63;;;7.03;96.08
77062;BME280;65989;51.686;5.138;2024-01-25T00:13:22;102918.97;;;6.99;96.46
77062;BME280;65989;51.686;5.138;2024-01-25T00:15:47;102917.88;;;6.94;96.38
77062;BME280;65989;51.686;5.138;2024-01-25T00:18:12;102911.31;;;6.90;96.92
77062;BME280;65989;51.686;5.138;2024-01-25T00:20:38;102904.94;;;6.84;97.14
77062;BME280;65989;51.686;5.138;2024-01-25T00:23:03;102910.38;;;6.82;97.33
77062;BME280;65989;51.686;5.138;2024-01-25T00:25:29;102911.56;;;6.80;97.75
77062;BME280;65989;51.686;5.138;2024-01-25T00:27:54;102907.81;;;6.74;98.01
77062;BME280;65989;51.686;5.138;2024-01-25T00:30:19;102907.97;;;6.72;98.38
77062;BME280;65989;51.686;5.138;2024-01-25T00:32:45;102920.84;;;6.67;98.33
77062;BME280;65989;51.686;5.138;2024-01-25T00:35:10;102913.31;;;6.64;98.79
77062;BME280;65989;51.686;5.138;2024-01-25T00:37:39;102913.69;;;6.61;98.95
77062;BME280;65989;51.686;5.138;2024-01-25T00:40:05;102912.19;;;6.58;99.42
77062;BME280;65989;51.686;5.138;2024-01-25T00:42:31;102924.91;;;6.55;99.38
77062;BME280;65989;51.686;5.138;2024-01-25T00:44:59;102921.63;;;6.53;99.76
77062;BME280;65989;51.686;5.138;2024-01-25T00:47:24;102922.78;;;6.50;99.82
77062;BME280;65989;51.686;5.138;2024-01-25T00:49:50;102918.03;;;6.46;100.00
77062;BME280;65989;51.686;5.138;2024-01-25T00:52:16;102925.13;;;6.45;100.00
77062;BME280;65989;51.686;5.138;2024-01-25T00:54:41;102917.75;;;6.40;100.00
77062;BME280;65989;51.686;5.138;2024-01-25T00:57:07;102919.72;;;6.38;100.00
77062;BME280;65989;51.686;5.138;2024-01-25T00:59:34;102926.31;;;6.34;100.00
77062;BME280;65989;51.686;5.138;2024-01-25T01:02:01;102925.66;;;6.32;100.00
77062;BME280;65989;51.686;5.138;2024-01-25T01:04:29;102923.22;;;6.31;100.00
77062;BME280;65989;51.686;5.138;2024-01-25T01:06:55;102919.13;;;6.28;100.00
77062;BME280;65989;51.686;5.138;2024-01-25T01:09:20;102930.66;;;6.27;100.00
77062;BME280;65989;51.686;5.138;2024-01-25T01:11:46;102926.38;;;6.26;100.00
77062;BME280;65989;51.686;5.138;2024-01-25T01:14:12;102938.91;;;6.24;100.00
77062;BME280;65989;51.686;5.138;2024-01-25T01:16:37;102943.66;;;6.20;100.00
77062;BME280;65989;51.686;5.138;2024-01-25T01:19:02;102936.94;;;6.18;100.00
77062;BME280;65989;51.686;5.138;2024-01-25T01:21:31;102941.56;;;6.16;100.00
77062;BME280;65989;51.686;5.138;2024-01-25T01:23:57;102952.44;;;6.12;100.00
77062;BME280;65989;51.686;5.138;2024-01-25T01:26:22;102950.13;;;6.09;100.00
77062;BME280;65989;51.686;5.138;2024-01-25T01:28:47;102951.97;;;6.09;100.00
77062;BME280;65989;51.686;5.138;2024-01-25T01:31:13;102952.63;;;6.03;100.00
77062;BME280;65989;51.686;5.138;2024-01-25T01:33:39;102952.09;;;5.99;100.00
77062;BME280;65989;51.686;5.138;2024-01-25T01:36:04;102953.28;;;5.96;100.00
77062;BME280;65989;51.686;5.138;2024-01-25T01:38:30;102948.53;;;5.92;100.00
77062;BME280;65989;51.686;5.138;2024-01-25T01:40:55;102950.31;;;5.91;100.00
77062;BME280;65989;51.686;5.138;2024-01-25T01:43:20;102954.28;;;5.87;100.00
77062;BME280;65989;51.686;5.138;2024-01-25T01:45:48;102962.69;;;5.82;100.00
77062;BME280;65989;51.686;5.138;2024-01-25T01:48:14;102961.84;;;5.82;100.00
77062;BME280;65989;51.686;5.138;2024-01-25T01:50:39;102966.00;;;5.76;100.00
77062;BME280;65989;51.686;5.138;2024-01-25T01:53:05;102976.50;;;5.76;100.00
77062;BME280;65989;51.686;5.138;2024-01-25T01:55:31;102974.22;;;5.73;100.00
77062;BME280;65989;51.686;5.138;2024-01-25T01:57:58;102981.44;;;5.71;100.00
77062;BME280;65989;51.686;5.138;2024-01-25T02:00:24;102977.84;;;5.64;100.00
77062;BME280;65989;51.686;5.138;2024-01-25T02:02:50;102985.09;;;5.62;100.00
77062;BME280;65989;51.686;5.138;2024-01-25T02:05:15;102997.28;;;5.63;100.00
77062;BME280;65989;51.686;5.138;2024-01-25T02:07:42;102996.75;;;5.59;100.00
77062;BME280;65989;51.686;5.138;2024-01-25T02:10:08;102995.97;;;5.59;100.00
77062;BME280;65989;51.686;5.138;2024-01-25T02:12:34;102998.91;;;5.56;100.00
77062;BME280;65989;51.686;5.138;2024-01-25T02:14:59;103001.03;;;5.52;100.00
77062;BME280;65989;51.686;5.138;2024-01-25T02:17:24;103000.38;;;5.50;100.00
77062;BME280;65989;51.686;5.138;2024-01-25T02:19:50;103003.19;;;5.48;100.00
77062;BME280;65989;51.686;5.138;2024-01-25T02:22:18;103006.31;;;5.44;100.00
77062;BME280;65989;51.686;5.138;2024-01-25T02:24:44;103011.72;;;5.42;100.00
77062;BME280;65989;51.686;5.138;2024-01-25T02:27:09;103014.69;;;5.39;100.00
77062;BME280;65989;51.686;5.138;2024-01-25T02:29:34;103012.69;;;5.33;100.00
77062;BME280;65989;51.686;5.138;2024-01-25T02:32:00;103007.63;;;5.31;100.00
77062;BME280;65989;51.686;5.138;2024-01-25T02:34:25;103009.78;;;5.28;100.00
77062;BME280;65989;51.686;5.138;2024-01-25T02:36:50;103014.50;;;5.24;100.00
77062;BME280;65989;51.686;5.138;2024-01-25T02:39:16;103016.47;;;5.22;100.00
77062;BME280;65989;51.686;5.138;2024-01-25T02:41:41;103017.78;;;5.18;100.00
77062;BME280;65989;51.686;5.138;2024-01-25T02:44:08;103012.03;;;5.14;100.00
77062;BME280;65989;51.686;5.138;2024-01-25T02:46:33;103008.75;;;5.12;100.00
77062;BME280;65989;51.686;5.138;2024-01-25T02:48:58;103011.03;;;5.07;100.00
77062;BME280;65989;51.686;5.138;2024-01-25T02:51:24;103010.38;;;5.05;100.00
77062;BME280;65989;51.686;5.138;2024-01-25T02:53:49;103013.50;;;5.00;100.00
77062;BME280;65989;51.686;5.138;2024-01-25T02:56:15;103016.94;;;5.01;100.00
77062;BME280;65989;51.686;5.138;2024-01-25T02:58:40;103010.38;;;4.97;100.00
77062;BME280;65989;51.686;5.138;2024-01-25T03:01:05;103014.13;;;4.94;100.00
77062;BME280;65989;51.686;5.138;2024-01-25T03:03:31;103008.41;;;4.90;100.00
77062;BME280;65989;51.686;5.138;2024-01-25T03:05:56;103012.66;;;4.91;100.00
77062;BME280;65989;51.686;5.138;2024-01-25T03:08:22;103011.34;;;4.87;100.00
77062;BME280;65989;51.686;5.138;2024-01-25T03:10:47;103011.16;;;4.81;100.00
77062;BME280;65989;51.686;5.138;2024-01-25T03:13:15;103003.63;;;4.77;100.00
77062;BME280;65989;51.686;5.138;2024-01-25T03:15:44;103001.31;;;4.74;100.00
77062;BME280;65989;51.686;5.138;2024-01-25T03:18:10;102994.56;;;4.72;100.00
77062;BME280;65989;51.686;5.138;2024-01-25T03:20:36;102996.38;;;4.71;100.00
77062;BME280;65989;51.686;5.138;2024-01-25T03:23:01;102987.16;;;4.67;100.00
77062;BME280;65989;51.686;5.138;2024-01-25T03:25:28;102989.94;;;4.66;100.00
77062;BME280;65989;51.686;5.138;2024-01-25T03:27:53;103001.28;;;4.66;100.00
77062;BME280;65989;51.686;5.138;2024-01-25T03:30:18;103003.72;;;4.59;100.00
77062;BME280;65989;51.686;5.138;2024-01-25T03:32:46;103000.44;;;4.57;100.00
77062;BME280;65989;51.686;5.138;2024-01-25T03:35:11;103011.06;;;4.56;100.00
77062;BME280;65989;51.686;5.138;2024-01-25T03:37:37;103009.59;;;4.53;100.00
77062;BME280;65989;51.686;5.138;2024-01-25T03:40:02;103007.59;;;4.47;100.00
77062;BME280;65989;51.686;5.138;2024-01-25T03:42:28;103011.03;;;4.47;100.00
77062;BME280;65989;51.686;5.138;2024-01-25T03:44:54;103017.28;;;4.46;100.00
77062;BME280;65989;51.686;5.138;2024-01-25T03:47:19;103020.06;;;4.45;100.00
77062;BME280;65989;51.686;5.138;2024-01-25T03:49:45;103019.41;;;4.43;100.00
77062;BME280;65989;51.686;5.138;2024-01-25T03:52:10;103016.28;;;4.39;100.00
77062;BME280;65989;51.686;5.138;2024-01-25T03:54:36;103015.44;;;4.39;100.00
77062;BME280;65989;51.686;5.138;2024-01-25T03:57:01;103008.72;;;4.36;100.00
77062;BME280;65989;51.686;5.138;2024-01-25T03:59:27;103021.00;;;4.36;100.00
77062;BME280;65989;51.686;5.138;2024-01-25T04:01:52;103014.28;;;4.33;100.00
77062;BME280;65989;51.686;5.138;2024-01-25T04:04:17;103014.59;;;4.30;100.00
77062;BME280;65989;51.686;5.138;2024-01-25T04:06:44;103014.59;;;4.30;100.00
77062;BME280;65989;51.686;5.138;2024-01-25T04:09:10;103019.03;;;4.29;100.00
77062;BME280;65989;51.686;5.138;2024-01-25T04:11:36;103017.38;;;4.28;100.00
77062;BME280;65989;51.686;5.138;2024-01-25T04:14:03;103028.31;;;4.24;100.00
77062;BME280;65989;51.686;5.138;2024-01-25T04:16:28;103016.66;;;4.18;100.00
77062;BME280;65989;51.686;5.138;2024-01-25T04:18:53;103010.44;;;4.19;100.00
77062;BME280;65989;51.686;5.138;2024-01-25T04:21:19;103014.03;;;4.18;100.00
77062;BME280;65989;51.686;5.138;2024-01-25T04:23:44;103020.09;;;4.18;100.00
77062;BME280;65989;51.686;5.138;2024-01-25T04:26:10;103016.81;;;4.16;100.00
77062;BME280;65989;51.686;5.138;2024-01-25T04:28:35;103020.25;;;4.17;100.00
77062;BME280;65989;51.686;5.138;2024-01-25T04:31:02;103018.13;;;4.12;100.00
77062;BME280;65989;51.686;5.138;2024-01-25T04:33:28;103022.84;;;4.09;100.00
77062;BME280;65989;51.686;5.138;2024-01-25T04:35:54;103019.22;;;4.10;100.00
77062;BME280;65989;51.686;5.138;2024-01-25T04:38:20;103023.16;;;4.06;100.00
77062;BME280;65989;51.686;5.138;2024-01-25T04:40:45;103029.38;;;4.04;100.00
77062;BME280;65989;51.686;5.138;2024-01-25T04:43:11;103022.09;;;3.98;100.00
77062;BME280;65989;51.686;5.138;2024-01-25T04:45:36;103021.31;;;3.98;100.00
77062;BME280;65989;51.686;5.138;2024-01-25T04:48:02;103024.91;;;3.97;100.00
77062;BME280;65989;51.686;5.138;2024-01-25T04:50:28;103022.44;;;3.95;100.00
77062;BME280;65989;51.686;5.138;2024-01-25T04:52:53;103022.88;;;3.91;100.00
77062;BME280;65989;51.686;5.138;2024-01-25T04:55:18;103026.66;;;3.88;100.00
77062;BME280;65989;51.686;5.138;2024-01-25T04:57:45;103040.75;;;3.87;100.00
77062;BME280;65989;51.686;5.138;2024-01-25T05:00:14;103028.91;;;3.83;100.00
77062;BME280;65989;51.686;5.138;2024-01-25T05:02:39;103024.81;;;3.80;100.00
77062;BME280;65989;51.686;5.138;2024-01-25T05:05:05;103030.84;;;3.81;100.00
77062;BME280;65989;51.686;5.138;2024-01-25T05:07:30;103029.22;;;3.80;100.00
77062;BME280;65989;51.686;5.138;2024-01-25T05:09:55;103027.72;;;3.77;100.00
77062;BME280;65989;51.686;5.138;2024-01-25T05:12:21;103023.28;;;3.78;100.00
77062;BME280;65989;51.686;5.138;2024-01-25T05:14:46;103017.53;;;3.74;100.00
77062;BME280;65989;51.686;5.138;2024-01-25T05:17:12;103013.94;;;3.75;100.00
77062;BME280;65989;51.686;5.138;2024-01-25T05:19:37;103018.34;;;3.74;100.00
77062;BME280;65989;51.686;5.138;2024-01-25T05:22:02;103025.72;;;3.71;100.00
77062;BME280;65989;51.686;5.138;2024-01-25T05:24:32;103012.91;;;3.68;100.00
77062;BME280;65989;51.686;5.138;2024-01-25T05:26:58;103018.47;;;3.65;100.00
77062;BME280;65989;51.686;5.138;2024-01-25T05:29:23;103022.88;;;3.64;100.00
77062;BME280;65989;51.686;5.138;2024-01-25T05:31:48;103028.13;;;3.64;100.00
77062;BME280;65989;51.686;5.138;2024-01-25T05:34:15;103033.38;;;3.64;100.00
77062;BME280;65989;51.686;5.138;2024-01-25T05:36:40;103036.31;;;3.61;100.00
77062;BME280;65989;51.686;5.138;2024-01-25T05:39:07;103037.94;;;3.62;100.00
77062;BME280;65989;51.686;5.138;2024-01-25T05:41:33;103038.25;;;3.59;100.00
77062;BME280;65989;51.686;5.138;2024-01-25T05:43:59;103039.06;;;3.59;100.00
77062;BME280;65989;51.686;5.138;2024-01-25T05:46:24;103045.28;;;3.58;100.00
77062;BME280;65989;51.686;5.138;2024-01-25T05:48:50;103037.03;;;3.53;100.00
77062;BME280;65989;51.686;5.138;2024-01-25T05:51:15;103037.88;;;3.54;100.00
77062;BME280;65989;51.686;5.138;2024-01-25T05:53:40;103032.09;;;3.50;100.00
77062;BME280;65989;51.686;5.138;2024-01-25T05:56:06;103037.50;;;3.49;100.00
77062;BME280;65989;51.686;5.138;2024-01-25T05:58:31;103037.50;;;3.49;100.00
77062;BME280;65989;51.686;5.138;2024-01-25T06:00:57;103031.59;;;3.47;100.00
77062;BME280;65989;51.686;5.138;2024-01-25T06:03:22;103027.31;;;3.46;100.00
77062;BME280;65989;51.686;5.138;2024-01-25T06:05:48;103036.16;;;3.44;100.00
77062;BME280;65989;51.686;5.138;2024-01-25T06:08:13;103034.81;;;3.40;100.00
77062;BME280;65989;51.686;5.138;2024-01-25T06:10:39;103033.69;;;3.43;100.00
77062;BME280;65989;51.686;5.138;2024-01-25T06:13:05;103025.44;;;3.38;100.00
77062;BME280;65989;51.686;5.138;2024-01-25T06:15:30;103030.16;;;3.34;100.00
77062;BME280;65989;51.686;5.138;2024-01-25T06:17:56;103031.28;;;3.32;100.00
77062;BME280;65989;51.686;5.138;2024-01-25T06:20:22;103036.53;;;3.32;100.00
77062;BME280;65989;51.686;5.138;2024-01-25T06:22:48;103037.66;;;3.29;100.00
77062;BME280;65989;51.686;5.138;2024-01-25T06:25:13;103051.75;;;3.28;100.00
77062;BME280;65989;51.686;5.138;2024-01-25T06:27:39;103048.75;;;3.23;100.00
77062;BME280;65989;51.686;5.138;2024-01-25T06:30:05;103059.22;;;3.23;100.00
77062;BME280;65989;51.686;5.138;2024-01-25T06:32:30;103050.69;;;3.21;100.00
77062;BME280;65989;51.686;5.138;2024-01-25T06:34:56;103053.13;;;3.22;100.00
77062;BME280;65989;51.686;5.138;2024-01-25T06:37:21;103045.44;;;3.21;100.00
77062;BME280;65989;51.686;5.138;2024-01-25T06:39:47;103052.63;;;3.19;100.00
77062;BME280;65989;51.686;5.138;2024-01-25T06:42:13;103062.25;;;3.18;100.00
77062;BME280;65989;51.686;5.138;2024-01-25T06:44:38;103056.34;;;3.16;100.00
77062;BME280;65989;51.686;5.138;2024-01-25T06:47:03;103049.78;;;3.12;100.00
77062;BME280;65989;51.686;5.138;2024-01-25T06:49:29;103043.03;;;3.09;100.00
77062;BME280;65989;51.686;5.138;2024-01-25T06:51:54;103038.75;;;3.08;100.00
77062;BME280;65989;51.686;5.138;2024-01-25T06:54:19;103046.78;;;3.07;100.00
77062;BME280;65989;51.686;5.138;2024-01-25T06:56:45;103047.75;;;3.06;100.00
77062;BME280;65989;51.686;5.138;2024-01-25T06:59:10;103045.41;;;3.03;100.00
77062;BME280;65989;51.686;5.138;2024-01-25T07:01:36;103057.16;;;2.98;100.00
77062;BME280;65989;51.686;5.138;2024-01-25T07:04:01;103052.09;;;2.97;100.00
77062;BME280;65989;51.686;5.138;2024-01-25T07:06:28;103058.59;;;2.93;100.00
77062;BME280;65989;51.686;5.138;2024-01-25T07:08:54;103053.63;;;2.90;100.00
77062;BME280;65989;51.686;5.138;2024-01-25T07:11:19;103057.22;;;2.89;100.00
77062;BME280;65989;51.686;5.138;2024-01-25T07:13:45;103056.94;;;2.92;100.00
77062;BME280;65989;51.686;5.138;2024-01-25T07:16:11;103054.31;;;2.92;100.00
77062;BME280;65989;51.686;5.138;2024-01-25T07:18:36;103063.53;;;2.96;100.00
77062;BME280;65989;51.686;5.138;2024-01-25T07:21:01;103059.25;;;2.95;100.00
77062;BME280;65989;51.686;5.138;2024-01-25T07:23:29;103062.41;;;2.98;100.00
77062;BME280;65989;51.686;5.138;2024-01-25T07:25:55;103067.34;;;3.02;100.00
77062;BME280;65989;51.686;5.138;2024-01-25T07:28:20;103066.22;;;3.04;100.00
77062;BME280;65989;51.686;5.138;2024-01-25T07:30:49;103068.25;;;3.10;100.00
77062;BME280;65989;51.686;5.138;2024-01-25T07:33:15;103077.31;;;3.16;100.00
77062;BME280;65989;51.686;5.138;2024-01-25T07:35:41;103074.94;;;3.23;100.00
77062;BME280;65989;51.686;5.138;2024-01-25T07:38:14;103083.03;;;3.29;100.00
77062;BME280;65989;51.686;5.138;2024-01-25T07:40:39;103073.72;;;3.35;100.00
77062;BME280;65989;51.686;5.138;2024-01-25T07:43:05;103068.88;;;3.40;100.00
77062;BME280;65989;51.686;5.138;2024-01-25T07:45:31;103058.63;;;3.47;100.00
77062;BME280;65989;51.686;5.138;2024-01-25T07:47:57;103065.88;;;3.53;100.00
77062;BME280;65989;51.686;5.138;2024-01-25T07:50:22;103068.88;;;3.58;100.00
77062;BME280;65989;51.686;5.138;2024-01-25T07:52:48;103059.72;;;3.63;100.00
77062;BME280;65989;51.686;5.138;2024-01-25T07:55:15;103064.69;;;3.66;100.00
77062;BME280;65989;51.686;5.138;2024-01-25T07:57:40;103061.75;;;3.69;100.00
77062;BME280;65989;51.686;5.138;2024-01-25T08:00:06;103062.25;;;3.72;100.00
77062;BME280;65989;51.686;5.138;2024-01-25T08:02:34;103069.69;;;3.77;100.00
77062;BME280;65989;51.686;5.138;2024-01-25T08:04:59;103070.50;;;3.78;100.00
77062;BME280;65989;51.686;5.138;2024-01-25T08:07:25;103075.28;;;3.82;100.00
77062;BME280;65989;51.686;5.138;2024-01-25T08:09:50;103075.16;;;3.84;100.00
77062;BME280;65989;51.686;5.138;2024-01-25T08:12:17;103080.75;;;3.89;100.00
77062;BME280;65989;51.686;5.138;2024-01-25T08:14:43;103080.28;;;3.94;100.00
77062;BME280;65989;51.686;5.138;2024-01-25T08:17:09;103068.34;;;3.99;100.00
77062;BME280;65989;51.686;5.138;2024-01-25T08:19:35;103050.88;;;4.08;100.00
77062;BME280;65989;51.686;5.138;2024-01-25T08:22:00;103034.38;;;4.16;100.00
77062;BME280;65989;51.686;5.138;2024-01-25T08:24:25;103036.19;;;4.24;100.00
77062;BME280;65989;51.686;5.138;2024-01-25T08:26:51;103045.91;;;4.31;100.00
77062;BME280;65989;51.686;5.138;2024-01-25T08:29:16;103058.28;;;4.39;100.00
77062;BME280;65989;51.686;5.138;2024-01-25T08:31:41;103053.38;;;4.44;100.00
77062;BME280;65989;51.686;5.138;2024-01-25T08:34:07;103050.78;;;4.53;100.00
77062;BME280;65989;51.686;5.138;2024-01-25T08:36:32;103061.31;;;4.61;100.00
77062;BME280;65989;51.686;5.138;2024-01-25T08:38:58;103065.94;;;4.67;100.00
77062;BME280;65989;51.686;5.138;2024-01-25T08:41:23;103072.22;;;4.74;100.00
77062;BME280;65989;51.686;5.138;2024-01-25T08:43:49;103068.13;;;4.80;100.00
77062;BME280;65989;51.686;5.138;2024-01-25T08:46:14;103065.69;;;4.87;100.00
77062;BME280;65989;51.686;5.138;2024-01-25T08:48:43;103064.25;;;4.92;100.00
77062;BME280;65989;51.686;5.138;2024-01-25T08:51:08;103061.94;;;4.98;100.00
77062;BME280;65989;51.686;5.138;2024-01-25T08:53:34;103064.91;;;5.03;100.00
77062;BME280;65989;51.686;5.138;2024-01-25T08:55:59;103066.22;;;5.07;100.00
77062;BME280;65989;51.686;5.138;2024-01-25T08:58:25;103074.28;;;5.14;100.00
77062;BME280;65989;51.686;5.138;2024-01-25T09:00:50;103079.06;;;5.18;100.00
77062;BME280;65989;51.686;5.138;2024-01-25T09:03:16;103072.66;;;5.21;100.00
77062;BME280;65989;51.686;5.138;2024-01-25T09:05:41;103070.69;;;5.23;100.00
77062;BME280;65989;51.686;5.138;2024-01-25T09:08:12;103078.13;;;5.28;100.00
77062;BME280;65989;51.686;5.138;2024-01-25T09:10:37;103069.88;;;5.31;100.00
77062;BME280;65989;51.686;5.138;2024-01-25T09:13:03;103067.59;;;5.36;100.00
77062;BME280;65989;51.686;5.138;2024-01-25T09:15:28;103065.16;;;5.43;100.00
77062;BME280;65989;51.686;5.138;2024-01-25T09:17:54;103062.69;;;5.49;100.00
77062;BME280;65989;51.686;5.138;2024-01-25T09:20:19;103069.75;;;5.57;100.00
77062;BME280;65989;51.686;5.138;2024-01-25T09:22:44;103067.28;;;5.64;100.00
77062;BME280;65989;51.686;5.138;2024-01-25T09:25:10;103068.59;;;5.76;100.00
77062;BME280;65989;51.686;5.138;2024-01-25T09:27:36;103064.78;;;5.87;100.00
77062;BME280;65989;51.686;5.138;2024-01-25T09:30:04;103067.28;;;5.89;100.00
77062;BME280;65989;51.686;5.138;2024-01-25T09:32:30;103064.31;;;6.00;100.00
77062;BME280;65989;51.686;5.138;2024-01-25T09:34:55;103058.38;;;6.06;100.00
77062;BME280;65989;51.686;5.138;2024-01-25T09:37:20;103064.63;;;6.13;100.00
77062;BME280;65989;51.686;5.138;2024-01-25T09:39:49;103073.00;;;6.17;100.00
77062;BME280;65989;51.686;5.138;2024-01-25T09:42:14;103072.19;;;6.25;100.00
77062;BME280;65989;51.686;5.138;2024-01-25T09:44:40;103071.66;;;6.30;100.00
77062;BME280;65989;51.686;5.138;2024-01-25T09:47:05;103085.16;;;6.35;100.00
77062;BME280;65989;51.686;5.138;2024-01-25T09:49:32;103084.63;;;6.39;100.00
77062;BME280;65989;51.686;5.138;2024-01-25T09:52:00;103076.25;;;6.44;100.00
77062;BME280;65989;51.686;5.138;2024-01-25T09:54:35;103069.28;;;6.51;100.00
77062;BME280;65989;51.686;5.138;2024-01-25T09:57:15;103065.16;;;6.57;100.00
77062;BME280;65989;51.686;5.138;2024-01-25T09:59:44;103061.00;;;6.63;100.00
77062;BME280;65989;51.686;5.138;2024-01-25T10:02:10;103051.13;;;6.65;100.00
77062;BME280;65989;51.686;5.138;2024-01-25T10:04:35;103046.63;;;6.73;100.00
77062;BME280;65989;51.686;5.138;2024-01-25T10:07:01;103043.13;;;6.81;100.00
77062;BME280;65989;51.686;5.138;2024-01-25T10:09:26;103036.81;;;6.91;100.00
77062;BME280;65989;51.686;5.138;2024-01-25T10:11:52;103040.41;;;6.98;100.00
77062;BME280;65989;51.686;5.138;2024-01-25T10:14:17;103042.53;;;7.02;100.00
77062;BME280;65989;51.686;5.138;2024-01-25T10:16:45;103036.75;;;7.07;100.00
77062;BME280;65989;51.686;5.138;2024-01-25T10:19:11;103037.53;;;7.08;100.00
77062;BME280;65989;51.686;5.138;2024-01-25T10:21:37;103045.13;;;7.11;100.00
77062;BME280;65989;51.686;5.138;2024-01-25T10:24:05;103039.03;;;7.10;100.00
77062;BME280;65989;51.686;5.138;2024-01-25T10:26:30;103029.09;;;7.12;100.00
77062;BME280;65989;51.686;5.138;2024-01-25T10:28:56;103021.84;;;7.14;100.00
77062;BME280;65989;51.686;5.138;2024-01-25T10:31:25;103022.13;;;7.20;100.00
77062;BME280;65989;51.686;5.138;2024-01-25T10:33:52;103026.25;;;7.22;100.00
77062;BME280;65989;51.686;5.138;2024-01-25T10:36:20;103025.91;;;7.25;100.00
77062;BME280;65989;51.686;5.138;2024-01-25T10:38:48;103025.19;;;7.31;100.00
77062;BME280;65989;51.686;5.138;2024-01-25T10:41:13;103026.16;;;7.30;100.00
77062;BME280;65989;51.686;5.138;2024-01-25T10:43:39;103015.09;;;7.35;100.00
77062;BME280;65989;51.686;5.138;2024-01-25T10:46:05;103015.91;;;7.36;100.00
77062;BME280;65989;51.686;5.138;2024-01-25T10:48:34;103017.56;;;7.37;100.00
77062;BME280;65989;51.686;5.138;2024-01-25T10:51:00;103017.84;;;7.42;100.00
77062;BME280;65989;51.686;5.138;2024-01-25T10:53:29;103023.41;;;7.47;100.00
77062;BME280;65989;51.686;5.138;2024-01-25T10:55:56;103030.44;;;7.55;100.00
77062;BME280;65989;51.686;5.138;2024-01-25T10:58:22;103027.97;;;7.53;100.00
77062;BME280;65989;51.686;5.138;2024-01-25T11:00:51;103031.19;;;7.63;100.00
77062;BME280;65989;51.686;5.138;2024-01-25T11:03:18;103023.84;;;7.74;100.00
77062;BME280;65989;51.686;5.138;2024-01-25T11:05:44;103006.19;;;7.74;100.00
77062;BME280;65989;51.686;5.138;2024-01-25T11:08:18;102999.16;;;7.82;100.00
77062;BME280;65989;51.686;5.138;2024-01-25T11:10:49;102991.38;;;7.88;100.00
77062;BME280;65989;51.686;5.138;2024-01-25T11:13:15;102975.81;;;7.94;100.00
77062;BME280;65989;51.686;5.138;2024-01-25T11:15:41;102977.53;;;8.01;100.00
77062;BME280;65989;51.686;5.138;2024-01-25T11:18:08;102965.13;;;8.02;100.00
77062;BME280;65989;51.686;5.138;2024-01-25T11:20:35;102959.31;;;8.06;100.00
77062;BME280;65989;51.686;5.138;2024-01-25T11:23:03;102950.41;;;8.07;100.00
77062;BME280;65989;51.686;5.138;2024-01-25T11:25:31;102956.75;;;8.13;100.00
77062;BME280;65989;51.686;5.138;2024-01-25T11:27:57;102961.09;;;8.21;100.00
77062;BME280;65989;51.686;5.138;2024-01-25T11:30:23;102954.28;;;8.27;100.00
77062;BME280;65989;51.686;5.138;2024-01-25T11:32:49;102955.94;;;8.28;100.00
77062;BME280;65989;51.686;5.138;2024-01-25T11:35:15;102953.88;;;8.30;99.74
77062;BME280;65989;51.686;5.138;2024-01-25T11:37:45;102948.81;;;8.28;99.28
77062;BME280;65989;51.686;5.138;2024-01-25T11:40:11;102949.44;;;8.30;99.07
77062;BME280;65989;51.686;5.138;2024-01-25T11:42:44;102944.97;;;8.31;98.71
77062;BME280;65989;51.686;5.138;2024-01-25T11:45:11;102947.22;;;8.34;98.63
77062;BME280;65989;51.686;5.138;2024-01-25T11:47:37;102941.59;;;8.37;98.59
77062;BME280;65989;51.686;5.138;2024-01-25T11:50:03;102945.50;;;8.41;98.41
77062;BME280;65989;51.686;5.138;2024-01-25T11:52:29;102944.31;;;8.44;98.13
77062;BME280;65989;51.686;5.138;2024-01-25T11:54:57;102932.13;;;8.43;97.44
77062;BME280;65989;51.686;5.138;2024-01-25T11:57:22;102937.84;;;8.46;97.54
77062;BME280;65989;51.686;5.138;2024-01-25T11:59:48;102922.66;;;8.48;97.58
77062;BME280;65989;51.686;5.138;2024-01-25T12:02:15;102920.25;;;8.54;97.44
77062;BME280;65989;51.686;5.138;2024-01-25T12:04:40;102908.75;;;8.61;97.15
77062;BME280;65989;51.686;5.138;2024-01-25T12:07:05;102887.03;;;8.66;96.97
77062;BME280;65989;51.686;5.138;2024-01-25T12:09:32;102881.56;;;8.68;96.58
77062;BME280;65989;51.686;5.138;2024-01-25T12:12:00;102884.22;;;8.68;96.26
77062;BME280;65989;51.686;5.138;2024-01-25T12:14:26;102885.38;;;8.65;95.73
77062;BME280;65989;51.686;5.138;2024-01-25T12:16:55;102880.09;;;8.65;95.56
77062;BME280;65989;51.686;5.138;2024-01-25T12:19:21;102874.44;;;8.68;95.20
77062;BME280;65989;51.686;5.138;2024-01-25T12:21:47;102870.16;;;8.67;95.46
77062;BME280;65989;51.686;5.138;2024-01-25T12:24:12;102862.22;;;8.67;95.37
77062;BME280;65989;51.686;5.138;2024-01-25T12:26:38;102853.94;;;8.70;95.52
77062;BME280;65989;51.686;5.138;2024-01-25T12:29:04;102870.03;;;8.75;95.40
77062;BME280;65989;51.686;5.138;2024-01-25T12:31:30;102869.28;;;8.81;95.79
77062;BME280;65989;51.686;5.138;2024-01-25T12:33:56;102864.03;;;8.88;95.45
77062;BME280;65989;51.686;5.138;2024-01-25T12:36:23;102862.47;;;8.94;94.99
77062;BME280;65989;51.686;5.138;2024-01-25T12:38:48;102869.00;;;8.98;94.43
77062;BME280;65989;51.686;5.138;2024-01-25T12:41:14;102864.56;;;9.05;94.47
77062;BME280;65989;51.686;5.138;2024-01-25T12:43:40;102858.53;;;9.11;94.06
77062;BME280;65989;51.686;5.138;2024-01-25T12:46:05;102860.94;;;9.13;93.55